Time;durP1;ratioP1;P1;durP2;ratioP2;P2;SDS_P1;SDS_P2;PMS_P1;PMS_P2;Temp;Humidity;BMP_temperature;BMP_pressure;BME280_temperature;BME280_humidity;BME280_pressure;Samples;Min_cycle;Max_cycle;Signal;HPM_P1;HPM_P2
2023/08/31 00:02:25;;;;;;;14.68;4.20;;;10.50;99.90;;;;;;6219996;23;20027;-86
2023/08/31 00:04:56;;;;;;;10.32;3.30;;;10.50;99.90;;;;;;6217889;23;20046;-86
2023/08/31 00:07:37;;;;;;;10.00;3.75;;;10.50;99.90;;;;;;6219581;23;20035;-86
2023/08/31 00:10:09;;;;;;;12.15;3.58;;;10.50;99.90;;;;;;6214242;23;20449;-86
2023/08/31 00:12:36;;;;;;;13.48;4.15;;;10.40;99.90;;;;;;6213975;23;20019;-86
2023/08/31 00:15:04;;;;;;;11.60;3.80;;;10.40;99.90;;;;;;6214894;23;20078;-86
2023/08/31 00:17:30;;;;;;;11.77;3.67;;;10.40;99.90;;;;;;6215225;23;20012;-86
2023/08/31 00:19:55;;;;;;;12.70;4.18;;;11.30;99.90;;;;;;6213719;23;20016;-86
2023/08/31 00:22:21;;;;;;;13.90;3.90;;;10.30;99.90;;;;;;6214124;23;20369;-86
2023/08/31 00:24:47;;;;;;;11.23;3.33;;;10.30;99.90;;;;;;6212494;23;20059;-86
2023/08/31 00:27:21;;;;;;;13.93;4.38;;;10.30;99.90;;;;;;6215232;23;20031;-86
2023/08/31 00:29:50;;;;;;;13.52;4.00;;;10.40;99.90;;;;;;6213999;23;20090;-86
2023/08/31 00:32:47;;;;;;;12.43;4.00;;;10.30;99.90;;;;;;6215025;23;20449;-86
2023/08/31 00:35:27;;;;;;;12.13;4.22;;;10.30;99.90;;;;;;6215175;23;20012;-86
2023/08/31 00:37:58;;;;;;;12.93;3.90;;;10.90;99.90;;;;;;6215680;23;20016;-86
2023/08/31 00:40:37;;;;;;;13.80;4.00;;;10.20;99.90;;;;;;6214552;23;20040;-86
2023/08/31 00:43:03;;;;;;;12.63;4.15;;;11.50;99.90;;;;;;6214394;23;20052;-86
2023/08/31 00:45:31;;;;;;;11.90;4.03;;;10.30;99.90;;;;;;6213361;23;20341;-86
2023/08/31 00:47:57;;;;;;;10.80;4.65;;;10.20;99.90;;;;;;6212455;23;20020;-86
2023/08/31 00:50:23;;;;;;;11.43;4.90;;;10.20;99.90;;;;;;6213827;23;20437;-86
2023/08/31 00:52:49;;;;;;;11.98;4.13;;;10.20;99.90;;;;;;6213094;23;20444;-86
2023/08/31 00:55:17;;;;;;;11.43;4.28;;;11.40;99.90;;;;;;6213810;23;20020;-86
2023/08/31 00:57:43;;;;;;;11.95;3.95;;;10.30;99.90;;;;;;6215480;23;20017;-86
2023/08/31 01:00:10;;;;;;;12.32;4.00;;;11.40;99.90;;;;;;6212947;23;20017;-86
2023/08/31 01:03:03;;;;;;;11.73;4.18;;;10.30;99.90;;;;;;6213353;23;20052;-86
2023/08/31 01:06:08;;;;;;;14.40;4.32;;;11.00;99.90;;;;;;6213927;23;20024;-86
2023/08/31 01:08:47;;;;;;;14.35;4.85;;;10.40;99.90;;;;;;6114527;23;20099;-86
2023/08/31 01:11:50;;;;;;;15.95;5.22;;;10.40;99.90;;;;;;6215938;23;20449;-86
2023/08/31 01:14:19;;;;;;;13.63;5.00;;;10.50;99.90;;;;;;6187460;23;20012;-86
2023/08/31 01:16:49;;;;;;;12.95;4.85;;;10.50;99.90;;;;;;6188326;23;20025;-86
2023/08/31 01:19:49;;;;;;;12.27;5.20;;;11.20;99.90;;;;;;6188584;23;20583;-86
2023/08/31 01:22:31;;;;;;;13.13;5.00;;;10.40;99.90;;;;;;6188092;23;20016;-86
2023/08/31 01:25:13;;;;;;;18.83;4.80;;;10.40;99.90;;;;;;6188394;23;20032;-86
2023/08/31 01:27:39;;;;;;;11.38;4.70;;;10.40;99.90;;;;;;6186119;23;20075;-86
2023/08/31 01:30:06;;;;;;;13.13;5.07;;;11.00;99.90;;;;;;6187996;23;20345;-86
2023/08/31 01:32:37;;;;;;;15.80;5.07;;;10.30;99.90;;;;;;6215328;23;20023;-86
2023/08/31 01:35:05;;;;;;;13.90;5.68;;;11.60;99.90;;;;;;6214751;23;20016;-86
2023/08/31 01:37:59;;;;;;;13.82;5.18;;;10.30;99.90;;;;;;6188977;23;20039;-86
2023/08/31 01:40:40;;;;;;;12.70;5.10;;;10.30;99.90;;;;;;6188686;23;20376;-86
2023/08/31 01:43:07;;;;;;;16.52;5.40;;;10.30;99.90;;;;;;6187718;23;20017;-86
2023/08/31 01:45:51;;;;;;;12.23;4.97;;;10.20;99.90;;;;;;6188626;23;20023;-87
2023/08/31 01:48:17;;;;;;;15.45;5.18;;;10.30;99.90;;;;;;6216543;23;20024;-86
2023/08/31 01:50:43;;;;;;;13.15;5.20;;;11.10;99.90;;;;;;6214239;23;20543;-86
2023/08/31 01:53:40;;;;;;;13.38;5.50;;;11.30;99.90;;;;;;6214844;23;20019;-86
2023/08/31 01:56:06;;;;;;;11.82;4.75;;;10.30;99.90;;;;;;6187670;23;20348;-86
2023/08/31 01:58:32;;;;;;;11.23;4.82;;;10.30;99.90;;;;;;6188605;23;20095;-86
2023/08/31 02:00:57;;;;;;;12.18;4.93;;;10.30;99.90;;;;;;6188149;23;20016;-86
2023/08/31 02:03:35;;;;;;;11.98;4.82;;;11.40;99.90;;;;;;6213624;23;20028;-86
2023/08/31 02:06:00;;;;;;;14.07;4.90;;;10.70;99.90;;;;;;6215015;23;20024;-85
2023/08/31 02:08:26;;;;;;;13.05;5.55;;;10.30;99.90;;;;;;6198495;23;20020;-86
2023/08/31 02:10:54;;;;;;;15.00;5.90;;;10.20;99.90;;;;;;6217426;23;20078;-86
2023/08/31 02:13:20;;;;;;;12.88;5.20;;;10.30;99.90;;;;;;6245748;23;20078;-86
2023/08/31 02:15:52;;;;;;;14.70;5.53;;;10.20;99.90;;;;;;6245117;23;20027;-86
2023/08/31 02:18:18;;;;;;;14.68;5.72;;;11.30;99.90;;;;;;6244553;23;20180;-86
2023/08/31 02:20:43;;;;;;;12.75;5.80;;;11.50;99.90;;;;;;6217984;23;20341;-86
2023/08/31 02:23:09;;;;;;;14.45;6.43;;;10.10;99.90;;;;;;6218596;23;20012;-86
2023/08/31 02:25:40;;;;;;;14.73;6.70;;;10.10;99.90;;;;;;6217130;23;20453;-86
2023/08/31 02:28:06;;;;;;;17.48;6.10;;;10.10;99.90;;;;;;6245745;23;20142;-86
2023/08/31 02:30:32;;;;;;;13.88;6.30;;;10.00;99.90;;;;;;6245695;23;20043;-86
2023/08/31 02:32:57;;;;;;;14.13;6.75;;;11.20;99.90;;;;;;6217723;23;20020;-86
2023/08/31 02:35:38;;;;;;;14.35;6.43;;;10.00;99.90;;;;;;6245098;23;20376;-86
2023/08/31 02:38:04;;;;;;;16.30;6.80;;;10.00;99.90;;;;;;6244000;23;20445;-86
2023/08/31 02:40:30;;;;;;;15.63;6.97;;;11.30;99.90;;;;;;6217675;23;20095;-86
2023/08/31 02:42:55;;;;;;;15.00;6.90;;;10.00;99.90;;;;;;6219962;23;20024;-86
2023/08/31 02:45:21;;;;;;;16.13;7.20;;;10.10;99.90;;;;;;6219380;23;20017;-86
2023/08/31 02:47:52;;;;;;;16.08;6.97;;;10.10;99.90;;;;;;6246858;23;20023;-86
2023/08/31 02:50:18;;;;;;;17.35;7.70;;;9.60;99.90;;;;;;6220316;23;20077;-86
2023/08/31 02:53:14;;;;;;;16.52;8.20;;;11.50;99.90;;;;;;6219097;23;20020;-86
2023/08/31 02:55:42;;;;;;;16.90;8.13;;;11.30;99.90;;;;;;6246234;23;20016;-86
2023/08/31 02:58:26;;;;;;;17.13;8.45;;;10.20;99.90;;;;;;6220331;23;20055;-86
2023/08/31 03:00:53;;;;;;;16.75;8.45;;;10.10;99.90;;;;;;6245986;23;20020;-86
2023/08/31 03:03:19;;;;;;;17.73;8.88;;;11.30;99.90;;;;;;6220209;23;20030;-86
2023/08/31 03:05:45;;;;;;;21.33;9.50;;;10.10;99.90;;;;;;6246035;23;20018;-86
2023/08/31 03:08:11;;;;;;;17.65;9.60;;;10.00;99.90;;;;;;6220053;23;20021;-86
2023/08/31 03:10:38;;;;;;;22.63;10.32;;;10.00;99.90;;;;;;6246761;23;20055;-86
2023/08/31 03:13:07;;;;;;;19.80;9.90;;;10.10;99.90;;;;;;6219324;23;20035;-86
2023/08/31 03:15:36;;;;;;;18.35;9.95;;;10.10;99.90;;;;;;6220301;23;20094;-86
2023/08/31 03:18:02;;;;;;;18.77;10.43;;;11.00;99.90;;;;;;6247057;23;20043;-86
2023/08/31 03:20:28;;;;;;;19.05;10.63;;;10.00;99.90;;;;;;6219087;23;20074;-86
2023/08/31 03:22:54;;;;;;;18.42;11.05;;;10.00;99.90;;;;;;6219804;23;20023;-86
2023/08/31 03:25:19;;;;;;;18.55;10.48;;;10.50;99.90;;;;;;6219557;23;20016;-86
2023/08/31 03:27:51;;;;;;;20.42;11.25;;;11.10;99.90;;;;;;6219075;23;20059;-86
2023/08/31 03:30:16;;;;;;;19.77;11.20;;;10.00;99.90;;;;;;6219814;23;20352;-86
2023/08/31 03:32:47;;;;;;;20.80;11.63;;;9.90;99.90;;;;;;6246381;23;20016;-86
2023/08/31 03:35:13;;;;;;;21.65;11.60;;;10.90;99.90;;;;;;6218614;23;20023;-86
2023/08/31 03:37:38;;;;;;;18.52;10.95;;;9.90;99.90;;;;;;6218991;23;20099;-86
2023/08/31 03:40:06;;;;;;;20.58;10.43;;;10.00;99.90;;;;;;6220135;23;20074;-86
2023/08/31 03:42:53;;;;;;;19.17;11.00;;;9.90;99.90;;;;;;6216786;23;20024;-86
2023/08/31 03:45:19;;;;;;;18.58;10.20;;;10.80;99.90;;;;;;6246701;23;20376;-86
2023/08/31 03:47:48;;;;;;;17.48;10.27;;;10.50;99.90;;;;;;6219218;23;20058;-86
2023/08/31 03:50:14;;;;;;;16.95;10.00;;;11.10;99.90;;;;;;6218905;23;20310;-86
2023/08/31 03:52:46;;;;;;;23.23;10.40;;;10.00;99.90;;;;;;6246130;23;20020;-86
2023/08/31 03:55:15;;;;;;;17.27;9.50;;;9.90;99.90;;;;;;6218496;23;20058;-86
2023/08/31 03:57:40;;;;;;;15.93;8.25;;;9.50;99.90;;;;;;6219193;23;20353;-86
2023/08/31 04:00:16;;;;;;;16.55;9.40;;;10.10;99.90;;;;;;6246579;23;20448;-86
2023/08/31 04:02:45;;;;;;;16.25;7.50;;;10.10;99.90;;;;;;6244795;23;20096;-86
2023/08/31 04:05:10;;;;;;;17.05;8.48;;;10.10;99.90;;;;;;6243704;23;20012;-86
2023/08/31 04:07:36;;;;;;;16.00;8.75;;;10.30;99.90;;;;;;6244240;23;20040;-86
2023/08/31 04:10:03;;;;;;;14.13;8.18;;;10.20;99.90;;;;;;6218376;23;20341;-87
2023/08/31 04:12:39;;;;;;;14.07;7.95;;;10.30;99.90;;;;;;6246358;23;20023;-86
2023/08/31 04:15:14;;;;;;;15.55;8.57;;;11.40;99.90;;;;;;6245937;23;20446;-86
2023/08/31 04:18:00;;;;;;;15.15;8.00;;;10.40;99.90;;;;;;6245447;23;20031;-87
2023/08/31 04:20:25;;;;;;;16.02;7.60;;;11.50;99.90;;;;;;6219988;23;20440;-86
2023/08/31 04:22:54;;;;;;;14.50;7.65;;;11.60;99.90;;;;;;6248404;23;20027;-87
2023/08/31 04:25:20;;;;;;;11.93;6.63;;;10.40;99.90;;;;;;6219038;23;20048;-86
2023/08/31 04:28:00;;;;;;;13.85;6.80;;;11.00;99.90;;;;;;6246332;23;20452;-87
2023/08/31 04:30:26;;;;;;;12.75;7.15;;;10.40;99.90;;;;;;6218660;23;20012;-87
2023/08/31 04:32:52;;;;;;;14.02;7.00;;;10.90;99.90;;;;;;6218130;23;20027;-86
2023/08/31 04:38:14;;;;;;;11.10;6.10;;;10.40;99.90;;;;;;6272517;22;20020;-86
2023/08/31 04:40:55;;;;;;;12.55;6.80;;;10.50;99.90;;;;;;6275628;22;20019;-87
2023/08/31 04:43:27;;;;;;;13.05;6.13;;;10.40;99.90;;;;;;6275054;22;20074;-84
2023/08/31 04:45:56;;;;;;;14.20;6.88;;;10.40;99.90;;;;;;6254767;22;20716;-88
2023/08/31 04:48:40;;;;;;;14.60;6.75;;;11.10;99.90;;;;;;6260208;22;20026;-85
2023/08/31 04:51:25;;;;;;;;;;;10.50;99.90;;;;;;6278913;22;20023;-86
2023/08/31 04:53:53;;;;;;;12.65;5.78;;;10.50;99.90;;;;;;6276044;22;19922;-85
2023/08/31 04:56:22;;;;;;;13.68;6.38;;;10.50;99.90;;;;;;6249465;22;20479;-86
2023/08/31 04:58:47;;;;;;;13.70;6.47;;;11.90;99.90;;;;;;6249081;22;20011;-86
2023/08/31 05:01:13;;;;;;;12.70;5.85;;;11.50;99.90;;;;;;6278445;22;20038;-85
2023/08/31 05:03:54;;;;;;;11.93;5.95;;;11.60;99.90;;;;;;6243135;22;20062;-86
2023/08/31 05:06:20;;;;;;;12.75;5.57;;;10.60;99.90;;;;;;6243683;23;20028;-86
2023/08/31 05:09:13;;;;;;;11.43;5.63;;;10.60;99.90;;;;;;6244043;23;20344;-86
2023/08/31 05:11:39;;;;;;;12.25;5.75;;;10.60;99.90;;;;;;6188979;23;20022;-86
2023/08/31 05:14:35;;;;;;;11.82;5.55;;;12.00;99.90;;;;;;6244808;23;20079;-86
2023/08/31 05:17:00;;;;;;;11.32;5.90;;;10.70;99.90;;;;;;6239522;22;20020;-85
2023/08/31 05:19:26;;;;;;;12.10;6.05;;;10.70;99.90;;;;;;6244482;23;20541;-86
2023/08/31 05:21:57;;;;;;;11.35;5.55;;;11.50;99.90;;;;;;6245863;23;20023;-86
2023/08/31 05:24:23;;;;;;;12.50;5.28;;;12.10;99.90;;;;;;6261393;22;20023;-85
2023/08/31 05:26:51;;;;;;;13.00;5.53;;;10.70;99.90;;;;;;6247659;22;20030;-85
2023/08/31 05:29:29;;;;;;;9.80;4.95;;;11.60;99.90;;;;;;6276391;22;20077;-86
2023/08/31 05:32:10;;;;;;;11.27;4.95;;;10.30;99.90;;;;;;6248500;22;20446;-85
2023/08/31 05:34:49;;;;;;;11.30;5.63;;;11.40;99.90;;;;;;6274382;22;20341;-85
2023/08/31 05:37:43;;;;;;;10.70;5.20;;;10.70;99.90;;;;;;6249046;22;20030;-86
2023/08/31 05:40:18;;;;;;;12.35;5.40;;;10.70;99.90;;;;;;6122198;23;20014;-86
2023/08/31 05:42:44;;;;;;;12.95;5.30;;;10.80;99.90;;;;;;6097809;23;20021;-85
2023/08/31 05:45:10;;;;;;;12.88;5.72;;;10.70;99.90;;;;;;6098720;23;20018;-85
2023/08/31 05:47:50;;;;;;;11.80;5.20;;;10.80;99.90;;;;;;6121799;23;20078;-86
2023/08/31 05:50:16;;;;;;;10.82;5.80;;;12.00;99.90;;;;;;6122611;23;20037;-86
2023/08/31 05:53:18;;;;;;;12.23;5.15;;;10.90;99.90;;;;;;6098228;23;20025;-85
2023/08/31 05:56:03;;;;;;;11.88;5.53;;;11.00;99.90;;;;;;6096300;23;20014;-86
2023/08/31 05:59:38;;;;;;;12.00;5.72;;;11.20;99.90;;;;;;6037920;23;20439;-85
2023/08/31 06:02:08;;;;;;;12.10;5.35;;;11.00;99.90;;;;;;6109202;23;20028;-85
2023/08/31 06:04:34;;;;;;;12.10;5.35;;;11.40;99.90;;;;;;6126057;22;20050;-85
2023/08/31 06:06:59;;;;;;;11.48;5.40;;;12.40;99.90;;;;;;6249190;22;20324;-85
2023/08/31 06:13:07;;;;;;;12.18;5.50;;;10.80;99.90;;;;;;6239946;22;20104;-83
2023/08/31 06:15:33;;;;;;;13.02;5.30;;;11.40;99.90;;;;;;6271163;22;20024;-84
2023/08/31 06:18:14;;;;;;;11.50;5.68;;;12.80;99.90;;;;;;6249862;22;20065;-84
2023/08/31 06:20:52;;;;;;;14.85;5.30;;;12.50;99.90;;;;;;6249961;22;20391;-83
2023/08/31 06:23:23;;;;;;;13.23;5.88;;;12.80;99.90;;;;;;6277022;22;20008;-83
2023/08/31 06:25:49;;;;;;;12.23;5.43;;;11.60;99.90;;;;;;6277661;22;20051;-83
2023/08/31 06:28:16;;;;;;;10.15;5.32;;;11.60;99.90;;;;;;6250559;22;20011;-83
2023/08/31 06:30:54;;;;;;;12.10;5.47;;;11.70;99.90;;;;;;6276687;22;20016;-82
2023/08/31 06:33:20;;;;;;;13.15;5.68;;;11.70;99.90;;;;;;6278003;22;20014;-84
2023/08/31 06:35:48;;;;;;;10.88;5.65;;;11.70;99.90;;;;;;6249857;22;20329;-83
2023/08/31 06:38:23;;;;;;;12.00;6.18;;;11.70;99.90;;;;;;6249378;22;20026;-84
2023/08/31 06:40:58;;;;;;;;;;;;;;;;;;;;;
2023/08/31 06:43:31;;;;;;;12.07;5.38;;;11.80;99.90;;;;;;6249861;22;20019;-83
2023/08/31 06:46:02;;;;;;;12.00;5.50;;;11.90;99.90;;;;;;6276488;22;20023;-84
2023/08/31 06:48:28;;;;;;;13.02;6.15;;;13.10;99.90;;;;;;6250507;22;20524;-84
2023/08/31 06:50:55;;;;;;;13.73;5.85;;;13.40;99.90;;;;;;6248835;22;20019;-84
2023/08/31 06:53:21;;;;;;;11.98;5.38;;;13.30;99.90;;;;;;6274813;22;20098;-83
2023/08/31 06:55:59;;;;;;;11.70;5.30;;;12.70;99.90;;;;;;6249781;22;20093;-83
2023/08/31 06:58:25;;;;;;;12.90;6.22;;;12.70;99.90;;;;;;6249503;22;20035;-83
2023/08/31 07:00:57;;;;;;;12.77;5.78;;;13.70;99.90;;;;;;6250045;22;20348;-83
2023/08/31 07:03:25;;;;;;;12.48;5.63;;;12.60;99.90;;;;;;6249909;22;20019;-84
2023/08/31 07:06:09;;;;;;;11.50;5.72;;;13.90;99.90;;;;;;6276372;22;20024;-83
2023/08/31 07:08:50;;;;;;;15.65;6.07;;;12.30;99.90;;;;;;6277079;22;20012;-83
2023/08/31 07:11:16;;;;;;;13.43;5.55;;;12.90;99.90;;;;;;6277778;22;20011;-84
2023/08/31 07:13:57;;;;;;;12.90;5.20;;;13.00;99.90;;;;;;6247796;22;20047;-83
2023/08/31 07:16:23;;;;;;;10.85;5.05;;;13.00;99.90;;;;;;6277323;22;20019;-82
2023/08/31 07:19:00;;;;;;;12.35;4.95;;;13.10;99.90;;;;;;6249588;22;20046;-82
2023/08/31 07:21:26;;;;;;;10.10;4.82;;;12.80;99.90;;;;;;6249768;22;20022;-83
2023/08/31 07:23:52;;;;;;;9.75;4.63;;;13.30;99.90;;;;;;6276649;22;20008;-84
2023/08/31 07:26:18;;;;;;;14.05;4.90;;;13.30;99.90;;;;;;6248841;22;20066;-84
2023/08/31 07:28:44;;;;;;;10.13;4.55;;;13.60;99.90;;;;;;6276793;22;20432;-87
2023/08/31 07:31:10;;;;;;;11.27;4.28;;;13.50;99.90;;;;;;6277502;22;20015;-84
2023/08/31 07:33:36;;;;;;;10.18;4.18;;;13.50;99.90;;;;;;6276099;22;20209;-84
2023/08/31 07:36:06;;;;;;;12.35;4.28;;;13.40;99.90;;;;;;6249623;22;20007;-83
2023/08/31 07:38:32;;;;;;;11.90;4.40;;;13.50;99.90;;;;;;6275475;22;20043;-82
2023/08/31 07:40:58;;;;;;;11.50;4.30;;;13.50;99.90;;;;;;6276228;22;20012;-83
2023/08/31 07:43:36;;;;;;;9.70;3.80;;;14.50;99.90;;;;;;6274601;22;20387;-83
2023/08/31 07:46:02;;;;;;;10.27;3.80;;;13.60;99.90;;;;;;6248979;22;20020;-84
2023/08/31 07:48:27;;;;;;;9.20;3.78;;;14.80;99.90;;;;;;6276232;22;20546;-83
2023/08/31 07:50:53;;;;;;;10.10;3.60;;;13.70;99.90;;;;;;6249587;22;20467;-83
2023/08/31 07:53:19;;;;;;;10.52;3.35;;;13.80;99.90;;;;;;6249381;22;20098;-83
2023/08/31 07:56:06;;;;;;;8.70;3.85;;;13.90;99.90;;;;;;6276037;22;20015;-87
2023/08/31 07:58:47;;;;;;;9.60;3.38;;;14.00;99.90;;;;;;6250968;22;20026;-87
2023/08/31 08:01:13;;;;;;;11.43;3.47;;;14.00;99.90;;;;;;6277260;22;20050;-84
2023/08/31 08:03:57;;;;;;;9.93;3.45;;;14.10;99.90;;;;;;6248964;22;20007;-84
2023/08/31 08:06:23;;;;;;;7.78;3.25;;;14.10;99.90;;;;;;6276418;22;20099;-83
2023/08/31 08:08:51;;;;;;;9.55;3.60;;;14.20;99.90;;;;;;6247992;22;20031;-83
2023/08/31 08:11:17;;;;;;;10.73;3.58;;;14.30;99.90;;;;;;6249242;22;20022;-83
2023/08/31 08:13:55;;;;;;;8.25;3.35;;;14.40;99.90;;;;;;6276652;22;20339;-83
2023/08/31 08:16:20;;;;;;;9.88;3.10;;;14.60;99.90;;;;;;6248514;22;20506;-83
2023/08/31 08:18:46;;;;;;;9.05;2.70;;;14.70;99.90;;;;;;6248962;22;20024;-84
2023/08/31 08:21:12;;;;;;;8.73;2.90;;;14.70;99.90;;;;;;6276713;22;20019;-83
2023/08/31 08:23:37;;;;;;;8.95;2.80;;;14.70;99.90;;;;;;6247934;22;20042;-83
2023/08/31 08:26:03;;;;;;;8.68;2.75;;;14.90;99.90;;;;;;6249320;22;20012;-83
2023/08/31 08:28:29;;;;;;;8.02;2.60;;;15.10;99.90;;;;;;6249403;22;20016;-83
2023/08/31 08:30:54;;;;;;;9.50;2.63;;;15.10;99.90;;;;;;6247893;22;20019;-83
2023/08/31 08:33:20;;;;;;;9.15;2.25;;;15.00;99.90;;;;;;6249044;22;20016;-82
2023/08/31 08:35:46;;;;;;;7.40;2.17;;;15.90;99.90;;;;;;6249748;22;20467;-83
2023/08/31 08:38:12;;;;;;;8.95;2.80;;;15.00;99.90;;;;;;6277279;22;20007;-83
2023/08/31 08:40:37;;;;;;;8.52;2.45;;;15.90;99.90;;;;;;6251739;22;20047;-83
2023/08/31 08:43:06;;;;;;;8.35;2.10;;;16.00;99.90;;;;;;6249446;22;20077;-82
2023/08/31 08:45:38;;;;;;;7.82;2.33;;;15.30;99.90;;;;;;6248046;22;20077;-83
2023/08/31 08:48:08;;;;;;;7.40;2.20;;;15.90;99.90;;;;;;6249370;22;20050;-83
2023/08/31 08:50:35;;;;;;;9.90;2.20;;;16.20;99.90;;;;;;6247839;22;20015;-83
2023/08/31 08:53:05;;;;;;;7.45;2.20;;;15.40;99.90;;;;;;6274814;22;20011;-82
2023/08/31 08:55:31;;;;;;;8.27;2.10;;;15.50;99.90;;;;;;6246607;22;20028;-82
2023/08/31 08:57:59;;;;;;;7.40;1.73;;;15.70;99.90;;;;;;6245584;22;20031;-83
2023/08/31 09:00:27;;;;;;;8.68;2.03;;;15.80;99.90;;;;;;6275086;22;20016;-82
2023/08/31 09:02:53;;;;;;;6.10;1.70;;;16.10;99.90;;;;;;6244142;22;20094;-83
2023/08/31 09:05:19;;;;;;;6.90;1.67;;;16.10;99.90;;;;;;6244670;22;20043;-83
2023/08/31 09:08:12;;;;;;;5.25;1.50;;;16.90;99.90;;;;;;6273475;22;20019;-83
2023/08/31 09:10:43;;;;;;;4.43;1.70;;;16.60;99.90;;;;;;6246169;22;20046;-83
2023/08/31 09:13:17;;;;;;;7.32;1.50;;;16.70;99.90;;;;;;6245367;22;20016;-83
2023/08/31 09:15:47;;;;;;;7.88;1.60;;;16.90;99.90;;;;;;6245915;22;20016;-82
2023/08/31 09:18:22;;;;;;;7.30;1.42;;;17.10;99.90;;;;;;6275187;22;20383;-83
2023/08/31 09:20:48;;;;;;;4.65;1.40;;;17.60;99.90;;;;;;6247224;22;20042;-83
2023/08/31 09:23:15;;;;;;;6.72;1.60;;;17.10;99.90;;;;;;6276047;22;20015;-83
2023/08/31 09:25:53;;;;;;;7.93;1.60;;;16.70;99.90;;;;;;6246690;22;20451;-83
2023/08/31 09:28:26;;;;;;;5.18;1.40;;;16.60;99.90;;;;;;6276150;22;20019;-83
2023/08/31 09:30:53;;;;;;;5.65;1.50;;;16.70;99.90;;;;;;6247727;22;20401;-83
2023/08/31 09:33:22;;;;;;;4.45;1.50;;;16.90;99.90;;;;;;6275260;22;20015;-85
2023/08/31 09:35:56;;;;;;;4.88;1.35;;;16.80;99.90;;;;;;6248016;22;20015;-83
2023/08/31 09:38:22;;;;;;;4.38;1.30;;;16.50;99.90;;;;;;6246081;22;20089;-84
2023/08/31 09:40:48;;;;;;;4.43;1.65;;;16.30;99.90;;;;;;6247029;22;20503;-84
2023/08/31 09:43:23;;;;;;;3.92;1.48;;;16.60;99.90;;;;;;6274384;22;20007;-85
2023/08/31 09:45:50;;;;;;;3.78;1.33;;;15.70;99.90;;;;;;6275566;22;20328;-84
2023/08/31 09:48:19;;;;;;;6.28;1.38;;;15.70;99.90;;;;;;6248094;22;20487;-83
2023/08/31 09:50:45;;;;;;;5.22;1.52;;;15.60;99.90;;;;;;6247841;22;20048;-84
2023/08/31 09:53:11;;;;;;;5.03;1.60;;;16.10;99.90;;;;;;6247876;22;20024;-84
2023/08/31 09:55:40;;;;;;;6.00;1.45;;;15.70;99.90;;;;;;6247005;22;20516;-84
2023/08/31 09:58:07;;;;;;;3.67;1.30;;;15.90;99.90;;;;;;6248524;22;20312;-86
2023/08/31 10:00:36;;;;;;;6.53;1.70;;;16.30;99.90;;;;;;6247727;22;20046;-83
2023/08/31 10:03:05;;;;;;;4.75;1.42;;;16.10;99.90;;;;;;6247162;22;20068;-84
2023/08/31 10:05:32;;;;;;;4.55;1.35;;;16.40;99.90;;;;;;6248004;22;20019;-83
2023/08/31 10:07:59;;;;;;;4.63;1.38;;;16.80;99.90;;;;;;6274256;22;20062;-83
2023/08/31 10:10:27;;;;;;;5.18;1.40;;;16.90;99.90;;;;;;6248061;22;20322;-83
2023/08/31 10:12:53;;;;;;;3.88;1.40;;;16.90;99.90;;;;;;6247715;22;20065;-85
2023/08/31 10:15:19;;;;;;;5.00;1.40;;;17.00;99.90;;;;;;6247324;22;20024;-85
2023/08/31 10:17:46;;;;;;;6.65;1.60;;;17.10;99.90;;;;;;6275234;22;20020;-83
2023/08/31 10:20:15;;;;;;;4.65;1.50;;;17.00;99.90;;;;;;6248395;22;20444;-83
2023/08/31 10:22:42;;;;;;;4.45;1.40;;;16.80;99.90;;;;;;6246553;22;20443;-84
2023/08/31 10:25:08;;;;;;;4.95;1.55;;;17.20;99.90;;;;;;6275839;22;20086;-84
2023/08/31 10:27:50;;;;;;;5.35;1.67;;;16.60;99.90;;;;;;6247817;22;20019;-83
2023/08/31 10:30:22;;;;;;;7.15;1.67;;;16.60;99.90;;;;;;6247033;22;20016;-84
2023/08/31 10:33:09;;;;;;;5.00;1.50;;;16.60;99.90;;;;;;6248115;22;20367;-84
2023/08/31 10:35:48;;;;;;;6.80;1.60;;;16.40;99.90;;;;;;6274314;22;20016;-88
2023/08/31 10:38:15;;;;;;;5.35;1.63;;;16.40;99.90;;;;;;6274597;22;20020;-84
2023/08/31 10:40:40;;;;;;;4.72;1.65;;;16.40;99.90;;;;;;6249017;22;20363;-84
2023/08/31 10:43:22;;;;;;;7.25;1.58;;;16.50;99.90;;;;;;6248382;22;20089;-84
2023/08/31 10:46:01;;;;;;;4.90;1.30;;;17.10;99.90;;;;;;6275356;22;20082;-84
2023/08/31 10:49:07;;;;;;;4.65;1.50;;;17.10;99.90;;;;;;6248696;22;20016;-84
2023/08/31 10:51:34;;;;;;;4.85;1.50;;;17.50;99.90;;;;;;6274836;22;20012;-83
2023/08/31 10:54:13;;;;;;;5.45;1.58;;;17.80;99.90;;;;;;6216377;23;20031;-82
2023/08/31 10:56:51;;;;;;;2.85;1.23;;;18.20;99.90;;;;;;6217236;23;20463;-82
2023/08/31 10:59:17;;;;;;;4.80;1.40;;;18.50;99.90;;;;;;6244491;23;20020;-83
2023/08/31 11:01:55;;;;;;;3.78;1.20;;;18.10;99.90;;;;;;6244994;23;20019;-83
2023/08/31 11:04:25;;;;;;;4.15;1.10;;;18.00;99.90;;;;;;6245781;23;20020;-84
2023/08/31 11:07:13;;;;;;;3.40;1.20;;;17.30;99.90;;;;;;6246722;23;20015;-84
2023/08/31 11:09:39;;;;;;;2.60;1.02;;;17.20;99.90;;;;;;6220035;23;20016;-84
2023/08/31 11:12:05;;;;;;;4.45;1.30;;;17.20;99.90;;;;;;6218851;23;20098;-84
2023/08/31 11:14:30;;;;;;;4.55;1.33;;;16.80;99.90;;;;;;6246780;23;20101;-84
2023/08/31 11:16:56;;;;;;;5.70;1.70;;;16.20;99.90;;;;;;6219294;23;20449;-84
2023/08/31 11:19:22;;;;;;;5.32;1.60;;;16.10;99.90;;;;;;6218915;23;20013;-84
2023/08/31 11:21:48;;;;;;;5.78;1.70;;;15.80;99.90;;;;;;6219368;23;20043;-83
2023/08/31 11:24:16;;;;;;;6.93;1.80;;;15.70;99.90;;;;;;6219714;23;20024;-83
2023/08/31 11:26:42;;;;;;;7.07;1.70;;;15.50;99.90;;;;;;6218379;23;20016;-83
2023/08/31 11:29:08;;;;;;;7.43;1.85;;;16.30;99.90;;;;;;6246943;23;20018;-83
2023/08/31 11:31:41;;;;;;;5.38;1.65;;;15.80;99.90;;;;;;6246608;23;20020;-84
2023/08/31 11:34:07;;;;;;;5.07;1.50;;;16.30;99.90;;;;;;6218709;23;20330;-83
2023/08/31 11:36:33;;;;;;;7.95;2.00;;;16.60;99.90;;;;;;6246143;23;20020;-83
2023/08/31 11:39:00;;;;;;;5.57;1.40;;;16.50;99.90;;;;;;6219819;23;20095;-84
2023/08/31 11:41:31;;;;;;;7.13;1.63;;;16.60;99.90;;;;;;6218485;23;20019;-84
2023/08/31 11:43:56;;;;;;;7.00;1.70;;;16.40;99.90;;;;;;6219267;23;20044;-83
2023/08/31 11:46:22;;;;;;;6.57;1.60;;;16.40;99.90;;;;;;6218564;23;20016;-84
2023/08/31 11:48:48;;;;;;;10.02;1.92;;;16.20;99.90;;;;;;6218834;23;20023;-84
2023/08/31 11:51:16;;;;;;;8.82;1.80;;;16.10;99.90;;;;;;6219583;23;20012;-84
2023/08/31 11:53:42;;;;;;;6.07;1.60;;;15.90;99.90;;;;;;6272013;22;20090;-85
2023/08/31 11:56:08;;;;;;;6.30;1.67;;;15.90;99.90;;;;;;6277405;22;20039;-84
2023/08/31 11:58:42;;;;;;;5.63;1.52;;;16.50;99.90;;;;;;6249888;22;20367;-84
2023/08/31 12:01:08;;;;;;;4.40;1.30;;;16.60;99.90;;;;;;6276280;22;20020;-84
2023/08/31 12:03:44;;;;;;;7.00;1.60;;;16.70;99.90;;;;;;6249374;22;20008;-84
2023/08/31 12:06:10;;;;;;;5.93;1.45;;;17.10;99.90;;;;;;6277573;22;20022;-84
2023/08/31 12:08:37;;;;;;;6.63;1.80;;;17.40;99.90;;;;;;6275863;22;20371;-84
2023/08/31 12:11:02;;;;;;;5.35;1.58;;;18.00;99.90;;;;;;6276842;22;20016;-84
2023/08/31 12:13:28;;;;;;;5.18;1.33;;;17.60;99.90;;;;;;6249460;22;20015;-84
2023/08/31 12:15:55;;;;;;;4.70;1.40;;;17.70;99.90;;;;;;6275994;22;20329;-84
2023/08/31 12:18:21;;;;;;;6.78;1.55;;;17.60;99.90;;;;;;6249372;22;20411;-83
2023/08/31 12:20:48;;;;;;;5.78;1.50;;;17.70;99.90;;;;;;6248893;22;20015;-84
2023/08/31 12:23:16;;;;;;;6.50;1.50;;;17.70;99.90;;;;;;6248116;22;20016;-83
2023/08/31 12:25:46;;;;;;;4.53;1.33;;;17.90;99.90;;;;;;6275346;22;20012;-84
2023/08/31 12:28:12;;;;;;;5.45;1.50;;;18.30;99.90;;;;;;6276869;22;20500;-84
2023/08/31 12:30:56;;;;;;;5.05;1.40;;;18.50;99.90;;;;;;6245802;22;20048;-82
2023/08/31 12:34:13;;;;;;;3.38;1.20;;;18.40;99.90;;;;;;6276857;22;20031;-81
2023/08/31 12:37:45;;;;;;;3.80;1.23;;;18.70;99.90;;;;;;6247560;22;20016;-82
2023/08/31 12:41:02;;;;;;;3.60;1.50;;;18.70;99.90;;;;;;6248687;22;20090;-82
2023/08/31 12:44:56;;;;;;;3.75;1.25;;;18.60;99.90;;;;;;6275119;22;20061;-82
2023/08/31 12:48:05;;;;;;;;;;;18.80;99.90;;;;;;6248712;22;20027;-85
2023/08/31 12:50:40;;;;;;;6.07;1.60;;;19.00;99.90;;;;;;6247888;22;19923;-85
2023/08/31 12:53:23;;;;;;;4.57;1.35;;;19.40;99.90;;;;;;6249272;22;20057;-84
2023/08/31 12:56:10;;;;;;;3.63;1.27;;;19.40;99.90;;;;;;6248659;22;20011;-85
2023/08/31 12:58:57;;;;;;;3.63;1.40;;;19.50;99.90;;;;;;6248014;22;20027;-85
2023/08/31 13:01:23;;;;;;;3.85;1.38;;;19.60;99.90;;;;;;6276260;22;20502;-84
2023/08/31 13:03:57;;;;;;;4.72;1.30;;;19.70;99.90;;;;;;6247587;22;20020;-84
2023/08/31 13:06:25;;;;;;;5.43;1.40;;;19.60;99.90;;;;;;6248858;22;20023;-84
2023/08/31 13:09:22;;;;;;;5.22;1.60;;;19.70;99.90;;;;;;6248548;22;20019;-84
2023/08/31 13:12:07;;;;;;;6.20;1.50;;;19.40;99.90;;;;;;6248085;22;20471;-84
2023/08/31 13:14:44;;;;;;;5.45;1.60;;;19.30;99.90;;;;;;6249266;22;20078;-85
2023/08/31 13:17:17;;;;;;;4.40;1.48;;;19.10;99.90;;;;;;6276133;22;20023;-85